CSCL Oceania — VRBI2 — position and weather

sailwx.info

Track history (hours):
 
Tides and Currents Weather Stations Pressure Air Temp Water Temp Dewpoint Dewpoint Depression Visibility Wind Speed Wind Dir Waves Ship Positions

CSCL Oceania

Last reported at 2015-May-01 18:00 UTC. Time now 2015-May-04 10:02 UTC.
Position S 34°18' W 013°06'.

Length 334 m; beam 42.8 m; draft 14.5 m.

Type: Cargo ship. MMSI: 477020300.

Wind from 330 at 15 knots

Barometer 1014.6 mb
Air temperature 22.0 ° C
Visibility: greater than 5.4 NM
Dewpoint 18.9 ° C

Date/timePositionNaut miles runAvg speedWind from/ knotsBaromVisibWave heightAir tempDewpointWater temp
2015-May-01 18:00S 34°18' W 013°06'   330 / 151014.6 5.4 22.018.9
2015-Apr-27 07:06S 24°36' W 045°44'1116.4
2015-Apr-27 06:25S 24°31' W 045°55'1416.2
2015-Apr-27 05:33S 24°25' W 046°09'1515.2
2015-Apr-27 04:33S 24°14' W 046°20'1312.9
2015-Apr-27 03:33S 24°01' W 046°20'5 5.1
2015-Apr-27 02:33S 23°56' W 046°19'1 0.5
2015-Apr-27 01:33S 23°56' W 046°19'0 0.0
2015-Apr-27 00:28S 23°56' W 046°19'0 0.0
2015-Apr-26 23:33S 23°56' W 046°19'0 0.0
2015-Apr-26 22:33S 23°56' W 046°19'0 0.0
2015-Apr-26 21:28S 23°56' W 046°19'0 0.0
2015-Apr-26 20:31S 23°56' W 046°19'0 0.0
2015-Apr-26 19:33S 23°56' W 046°19'0 0.0
2015-Apr-26 18:31S 23°56' W 046°19'0 0.0
2015-Apr-26 17:28S 23°56' W 046°19'0 0.0
2015-Apr-26 16:32S 23°56' W 046°19'0 0.0
2015-Apr-26 15:33S 23°56' W 046°19'0 0.0
2015-Apr-26 14:33S 23°56' W 046°19'0 0.0
2015-Apr-26 13:33S 23°56' W 046°19'0 0.0
2015-Apr-26 12:32S 23°56' W 046°19'0 0.0
2015-Apr-26 11:33S 23°56' W 046°19'0 0.0
2015-Apr-26 10:33S 23°56' W 046°19'0 0.0
2015-Apr-26 09:33S 23°56' W 046°19'0 0.0
2015-Apr-26 08:34S 23°56' W 046°19'0 0.0
2015-Apr-26 07:32S 23°56' W 046°19'0 0.0
2015-Apr-26 06:32S 23°56' W 046°19'0 0.0
2015-Apr-26 05:22S 23°56' W 046°19'0 0.0
2015-Apr-26 04:31S 23°56' W 046°19'0 0.0
2015-Apr-26 03:32S 23°56' W 046°19'0 0.0
2015-Apr-26 02:29S 23°56' W 046°19'0 0.0
2015-Apr-26 01:34S 23°56' W 046°19'4 4.1
2015-Apr-26 00:34S 23°59' W 046°18'5 5.5
2015-Apr-25 23:33S 24°04' W 046°22'7 6.8
2015-Apr-25 22:33S 24°10' W 046°24'1312.8
2015-Apr-25 21:33S 24°22' W 046°30'1615.3
2015-Apr-25 20:30S 24°35' W 046°40'191 4.3
2015-Apr-24 00:23S 27°29' W 048°07'1011.8
2015-Apr-23 23:33S 27°39' W 048°09'1312.5
2015-Apr-23 22:32S 27°51' W 048°13'  
Track history (hours):
 
Tides and Currents Weather Stations Pressure Air Temp Water Temp Dewpoint Dewpoint Depression Visibility Wind Speed Wind Dir Waves Ship Positions

CSCL Oceania

Last reported at 2015-May-01 18:00 UTC. Time now 2015-May-04 10:02 UTC.
Position S 34°18' W 013°06'.

Length 334 m; beam 42.8 m; draft 14.5 m.

Type: Cargo ship. MMSI: 477020300.

Wind from 330 at 15 knots

Barometer 1014.6 mb
Air temperature 22.0 ° C
Visibility: greater than 5.4 NM
Dewpoint 18.9 ° C

Date/timePositionNaut miles runAvg speedWind from/ knotsBaromVisibWave heightAir tempDewpointWater temp
2015-May-01 18:00S 34°18' W 013°06'   330 / 151014.6 5.4 22.018.9
2015-Apr-27 07:06S 24°36' W 045°44'1116.4
2015-Apr-27 06:25S 24°31' W 045°55'1416.2
2015-Apr-27 05:33S 24°25' W 046°09'1515.2
2015-Apr-27 04:33S 24°14' W 046°20'1312.9
2015-Apr-27 03:33S 24°01' W 046°20'5 5.1
2015-Apr-27 02:33S 23°56' W 046°19'1 0.5
2015-Apr-27 01:33S 23°56' W 046°19'0 0.0
2015-Apr-27 00:28S 23°56' W 046°19'0 0.0
2015-Apr-26 23:33S 23°56' W 046°19'0 0.0
2015-Apr-26 22:33S 23°56' W 046°19'0 0.0
2015-Apr-26 21:28S 23°56' W 046°19'0 0.0
2015-Apr-26 20:31S 23°56' W 046°19'0 0.0
2015-Apr-26 19:33S 23°56' W 046°19'0 0.0
2015-Apr-26 18:31S 23°56' W 046°19'0 0.0
2015-Apr-26 17:28S 23°56' W 046°19'0 0.0
2015-Apr-26 16:32S 23°56' W 046°19'0 0.0
2015-Apr-26 15:33S 23°56' W 046°19'0 0.0
2015-Apr-26 14:33S 23°56' W 046°19'0 0.0
2015-Apr-26 13:33S 23°56' W 046°19'0 0.0
2015-Apr-26 12:32S 23°56' W 046°19'0 0.0
2015-Apr-26 11:33S 23°56' W 046°19'0 0.0
2015-Apr-26 10:33S 23°56' W 046°19'0 0.0
2015-Apr-26 09:33S 23°56' W 046°19'0 0.0
2015-Apr-26 08:34S 23°56' W 046°19'0 0.0
2015-Apr-26 07:32S 23°56' W 046°19'0 0.0
2015-Apr-26 06:32S 23°56' W 046°19'0 0.0
2015-Apr-26 05:22S 23°56' W 046°19'0 0.0
2015-Apr-26 04:31S 23°56' W 046°19'0 0.0
2015-Apr-26 03:32S 23°56' W 046°19'0 0.0
2015-Apr-26 02:29S 23°56' W 046°19'0 0.0
2015-Apr-26 01:34S 23°56' W 046°19'4 4.1
2015-Apr-26 00:34S 23°59' W 046°18'5 5.5
2015-Apr-25 23:33S 24°04' W 046°22'7 6.8
2015-Apr-25 22:33S 24°10' W 046°24'1312.8
2015-Apr-25 21:33S 24°22' W 046°30'1615.3
2015-Apr-25 20:30S 24°35' W 046°40'191 4.3
2015-Apr-24 00:23S 27°29' W 048°07'1011.8
2015-Apr-23 23:33S 27°39' W 048°09'1312.5
2015-Apr-23 22:32S 27°51' W 048°13'  

Dump ship's entire track history